createdAt,value
2018-01-17T00:00:33.078Z,989.15
2018-01-17T00:01:32.899Z,989.04
2018-01-17T00:02:32.991Z,989.04
2018-01-17T00:03:32.840Z,989.07
2018-01-17T00:04:32.899Z,989.02
2018-01-17T00:05:32.783Z,989.03
2018-01-17T00:06:32.915Z,989.07
2018-01-17T00:07:32.722Z,989.00
2018-01-17T00:08:32.827Z,989.03
2018-01-17T00:09:32.666Z,989.07
2018-01-17T00:10:32.737Z,989.00
2018-01-17T00:11:32.601Z,989.11
2018-01-17T00:12:32.648Z,988.95
2018-01-17T00:13:32.543Z,988.96
2018-01-17T00:14:32.662Z,988.83
2018-01-17T00:15:32.486Z,988.83
2018-01-17T00:16:32.576Z,988.76
2018-01-17T00:17:32.426Z,988.79
2018-01-17T00:18:32.488Z,988.75
2018-01-17T00:19:32.369Z,988.76
2018-01-17T00:20:32.498Z,988.74
2018-01-17T00:21:32.308Z,988.69
2018-01-17T00:22:32.412Z,988.63
2018-01-17T00:23:32.247Z,988.67
2018-01-17T00:24:32.321Z,988.62
2018-01-17T00:25:32.191Z,988.61
2018-01-17T00:26:32.335Z,988.61
2018-01-17T00:27:32.130Z,988.66
2018-01-17T00:28:32.246Z,988.65
2018-01-17T00:29:32.070Z,988.69
2018-01-17T00:30:32.157Z,988.72
2018-01-17T00:31:32.015Z,988.74
2018-01-17T00:32:32.074Z,988.78
2018-01-17T00:33:31.952Z,988.84
2018-01-17T00:34:32.084Z,988.82
2018-01-17T00:35:31.895Z,988.87
2018-01-17T00:36:31.995Z,988.90
2018-01-17T00:37:31.835Z,988.86
2018-01-17T00:38:31.908Z,988.75
2018-01-17T00:39:31.772Z,988.69
2018-01-17T00:40:31.948Z,988.70
2018-01-17T00:41:31.715Z,988.65
2018-01-17T00:42:31.842Z,988.70
2018-01-17T00:43:31.656Z,988.72
2018-01-17T00:44:31.746Z,988.73
2018-01-17T00:45:31.597Z,988.71
2018-01-17T00:46:31.757Z,988.79
2018-01-17T00:47:31.540Z,988.81
2018-01-17T00:48:31.669Z,988.79
2018-01-17T00:49:31.476Z,988.75
2018-01-17T00:50:31.578Z,988.69
2018-01-17T00:51:31.420Z,988.70
2018-01-17T00:52:31.492Z,988.80
2018-01-17T00:53:31.359Z,988.83
2018-01-17T00:54:31.506Z,988.65
2018-01-17T00:55:31.301Z,988.69
2018-01-17T00:56:31.417Z,988.77
2018-01-17T00:57:31.237Z,988.70
2018-01-17T00:58:31.327Z,988.73
2018-01-17T00:59:31.183Z,988.83
2018-01-17T01:00:31.345Z,988.78
2018-01-17T01:01:31.121Z,988.72
2018-01-17T01:02:31.260Z,988.53
2018-01-17T01:03:31.063Z,988.58
2018-01-17T01:04:31.167Z,988.60
2018-01-17T01:05:31.005Z,988.62
2018-01-17T01:06:31.077Z,988.66
2018-01-17T01:07:30.945Z,988.58
2018-01-17T01:08:31.092Z,988.65
2018-01-17T01:09:30.884Z,988.57
2018-01-17T01:10:30.998Z,988.53
2018-01-17T01:11:30.826Z,988.65
2018-01-17T01:12:30.914Z,988.59
2018-01-17T01:13:30.771Z,988.52
2018-01-17T01:14:30.928Z,988.62
2018-01-17T01:15:30.706Z,988.63
2018-01-17T01:16:30.839Z,988.60
2018-01-17T01:17:30.645Z,988.77
2018-01-17T01:18:30.750Z,988.85
2018-01-17T01:19:30.594Z,988.75
2018-01-17T01:20:30.766Z,988.78
2018-01-17T01:21:30.529Z,988.77
2018-01-17T01:22:30.678Z,988.74
2018-01-17T01:23:30.472Z,988.76
2018-01-17T01:24:30.588Z,988.72
2018-01-17T01:25:30.408Z,988.73
2018-01-17T01:26:30.501Z,988.78
2018-01-17T01:27:30.349Z,988.66
2018-01-17T01:28:30.517Z,988.88
2018-01-17T01:29:30.289Z,988.83
2018-01-17T01:30:30.425Z,989.01
2018-01-17T01:31:30.231Z,988.78
2018-01-17T01:32:30.336Z,988.84
2018-01-17T01:33:30.169Z,988.83
2018-01-17T01:34:30.246Z,988.73
2018-01-17T01:35:30.110Z,988.86
2018-01-17T01:36:30.162Z,988.81
2018-01-17T01:37:30.052Z,988.84
2018-01-17T01:38:30.068Z,988.83
2018-01-17T01:39:29.992Z,988.88
2018-01-17T01:40:30.088Z,988.88
2018-01-17T01:41:29.931Z,988.95
2018-01-17T01:42:29.997Z,988.86
2018-01-17T01:43:29.872Z,988.98
2018-01-17T01:44:29.903Z,988.93
2018-01-17T01:45:29.812Z,988.87
2018-01-17T01:46:29.821Z,989.03
2018-01-17T01:47:29.751Z,989.23
2018-01-17T01:48:29.833Z,989.38
2018-01-17T01:49:29.691Z,989.36
2018-01-17T01:50:29.745Z,989.41
2018-01-17T01:51:29.631Z,989.59
2018-01-17T01:52:29.656Z,989.62
2018-01-17T01:53:29.572Z,989.46
2018-01-17T01:54:29.668Z,989.25
2018-01-17T01:55:29.518Z,989.31
2018-01-17T01:56:29.583Z,989.40
2018-01-17T01:57:29.454Z,989.33
2018-01-17T01:58:29.491Z,989.09
2018-01-17T01:59:29.394Z,989.22
2018-01-17T02:00:29.404Z,989.07
2018-01-17T02:01:29.336Z,989.09
2018-01-17T02:02:29.419Z,989.12
2018-01-17T02:03:29.273Z,989.16
2018-01-17T02:04:29.329Z,989.28
2018-01-17T02:05:29.214Z,989.30
2018-01-17T02:06:29.242Z,989.25
2018-01-17T02:07:29.156Z,989.40
2018-01-17T02:08:29.253Z,989.16
2018-01-17T02:09:29.094Z,989.20
2018-01-17T02:10:29.166Z,989.34
2018-01-17T02:11:29.034Z,989.37
2018-01-17T02:12:29.078Z,989.37
2018-01-17T02:13:28.976Z,989.40
2018-01-17T02:14:29.092Z,989.49
2018-01-17T02:15:28.916Z,989.61
2018-01-17T02:16:29.003Z,989.52
2018-01-17T02:17:28.854Z,989.54
2018-01-17T02:18:28.913Z,989.56
2018-01-17T02:19:28.795Z,989.54
2018-01-17T02:20:28.829Z,989.59
2018-01-17T02:21:28.733Z,989.61
2018-01-17T02:22:35.394Z,989.62
2018-01-17T02:23:28.679Z,989.67
2018-01-17T02:24:28.753Z,989.60
2018-01-17T02:25:28.614Z,989.57
2018-01-17T02:26:28.662Z,989.52
2018-01-17T02:27:28.554Z,989.56
2018-01-17T02:28:28.675Z,989.53
2018-01-17T02:29:28.498Z,989.54
2018-01-17T02:30:28.590Z,989.50
2018-01-17T02:31:28.441Z,989.53
2018-01-17T02:32:28.501Z,989.64
2018-01-17T02:33:28.374Z,989.79
2018-01-17T02:34:28.411Z,989.91
2018-01-17T02:35:28.316Z,989.97
2018-01-17T02:36:28.424Z,989.73
2018-01-17T02:37:28.258Z,989.60
2018-01-17T02:38:28.339Z,989.61
2018-01-17T02:39:28.198Z,989.71
2018-01-17T02:40:28.250Z,989.67
2018-01-17T02:41:28.135Z,989.73
2018-01-17T02:42:28.263Z,989.70
2018-01-17T02:43:28.079Z,989.67
2018-01-17T02:44:28.175Z,989.72
2018-01-17T02:45:28.017Z,989.80
2018-01-17T02:46:28.132Z,989.71
2018-01-17T02:47:27.957Z,989.68
2018-01-17T02:48:27.996Z,989.72
2018-01-17T02:49:27.898Z,989.64
2018-01-17T02:50:28.007Z,989.70
2018-01-17T02:51:27.848Z,989.60
2018-01-17T02:52:27.922Z,989.67
2018-01-17T02:53:27.779Z,989.75
2018-01-17T02:54:27.833Z,989.76
2018-01-17T02:55:27.718Z,989.75
2018-01-17T02:56:27.846Z,989.75
2018-01-17T02:57:27.654Z,989.64
2018-01-17T02:58:27.757Z,989.63
2018-01-17T02:59:27.596Z,989.55
2018-01-17T03:00:27.669Z,989.65
2018-01-17T03:01:27.534Z,989.51
2018-01-17T03:02:27.683Z,989.62
2018-01-17T03:03:27.472Z,989.61
2018-01-17T03:04:27.595Z,989.67
2018-01-17T03:05:27.415Z,989.79
2018-01-17T03:06:27.505Z,989.88
2018-01-17T03:07:27.353Z,989.86
2018-01-17T03:08:27.418Z,990.02
2018-01-17T03:09:27.293Z,989.87
2018-01-17T03:10:27.440Z,989.84
2018-01-17T03:11:27.231Z,989.82
2018-01-17T03:12:27.344Z,989.81
2018-01-17T03:13:27.171Z,989.76
2018-01-17T03:14:27.253Z,989.70
2018-01-17T03:15:27.112Z,989.74
2018-01-17T03:16:27.267Z,989.77
2018-01-17T03:17:27.050Z,989.81
2018-01-17T03:18:27.179Z,989.79
2018-01-17T03:19:26.988Z,989.90
2018-01-17T03:20:27.093Z,989.85
2018-01-17T03:21:26.928Z,989.82
2018-01-17T03:22:27.006Z,989.80
2018-01-17T03:23:26.867Z,989.84
2018-01-17T03:24:27.020Z,989.80
2018-01-17T03:25:26.807Z,989.83
2018-01-17T03:26:26.930Z,989.82
2018-01-17T03:27:26.748Z,989.93
2018-01-17T03:28:26.840Z,989.84
2018-01-17T03:29:26.688Z,989.97
2018-01-17T03:30:26.855Z,989.97
2018-01-17T03:31:26.625Z,990.03
2018-01-17T03:32:26.762Z,990.01
2018-01-17T03:33:26.566Z,990.00
2018-01-17T03:34:26.677Z,990.02
2018-01-17T03:35:26.507Z,990.04
2018-01-17T03:36:26.588Z,990.05
2018-01-17T03:37:26.445Z,990.07
2018-01-17T03:38:26.601Z,990.08
2018-01-17T03:39:26.383Z,990.12
2018-01-17T03:40:26.514Z,990.06
2018-01-17T03:41:26.321Z,990.13
2018-01-17T03:42:26.426Z,990.15
2018-01-17T03:43:26.258Z,990.17
2018-01-17T03:44:26.439Z,990.13
2018-01-17T03:45:26.198Z,990.19
2018-01-17T03:46:26.350Z,990.21
2018-01-17T03:47:26.138Z,990.29
2018-01-17T03:48:26.261Z,990.28
2018-01-17T03:49:26.078Z,990.23
2018-01-17T03:50:26.174Z,990.37
2018-01-17T03:51:26.018Z,990.38
2018-01-17T03:52:26.187Z,990.37
2018-01-17T03:53:25.955Z,990.32
2018-01-17T03:54:26.097Z,990.29
2018-01-17T03:55:25.896Z,990.32
2018-01-17T03:56:26.010Z,990.35
2018-01-17T03:57:25.834Z,990.33
2018-01-17T03:58:26.024Z,990.33
2018-01-17T03:59:25.773Z,990.39
2018-01-17T04:00:25.936Z,990.38
2018-01-17T04:01:25.709Z,990.42
2018-01-17T04:02:25.847Z,990.35
2018-01-17T04:03:25.650Z,990.37
2018-01-17T04:04:25.656Z,990.46
2018-01-17T04:05:25.588Z,990.44
2018-01-17T04:06:25.670Z,990.48
2018-01-17T04:07:25.528Z,990.49
2018-01-17T04:08:25.581Z,990.50
2018-01-17T04:09:25.467Z,990.58
2018-01-17T04:10:25.495Z,990.59
2018-01-17T04:11:25.407Z,990.58
2018-01-17T04:12:25.403Z,990.65
2018-01-17T04:13:25.344Z,990.64
2018-01-17T04:14:25.420Z,990.69
2018-01-17T04:15:25.284Z,990.69
2018-01-17T04:16:25.331Z,990.70
2018-01-17T04:17:25.221Z,990.87
2018-01-17T04:18:25.240Z,990.80
2018-01-17T04:19:25.163Z,990.85
2018-01-17T04:20:26.176Z,990.85
2018-01-17T04:21:25.141Z,990.87
2018-01-17T04:22:25.166Z,990.88
2018-01-17T04:23:25.041Z,990.89
2018-01-17T04:24:25.078Z,990.81
2018-01-17T04:25:24.978Z,990.91
2018-01-17T04:26:24.993Z,991.06
2018-01-17T04:27:24.915Z,991.10
2018-01-17T04:28:25.002Z,991.05
2018-01-17T04:29:24.854Z,991.03
2018-01-17T04:30:24.913Z,991.02
2018-01-17T04:31:24.792Z,991.09
2018-01-17T04:32:24.825Z,991.01
2018-01-17T04:33:24.730Z,991.11
2018-01-17T04:34:24.840Z,991.10
2018-01-17T04:35:24.672Z,991.15
2018-01-17T04:36:24.750Z,991.14
2018-01-17T04:37:24.607Z,991.13
2018-01-17T04:38:24.662Z,991.16
2018-01-17T04:39:24.546Z,991.19
2018-01-17T04:40:24.573Z,991.36
2018-01-17T04:41:24.483Z,991.26
2018-01-17T04:42:24.587Z,991.17
2018-01-17T04:43:24.422Z,991.01
2018-01-17T04:44:24.499Z,991.07
2018-01-17T04:45:24.362Z,991.12
2018-01-17T04:46:24.411Z,991.14
2018-01-17T04:47:24.297Z,991.15
2018-01-17T04:48:24.324Z,991.19
2018-01-17T04:49:24.236Z,991.27
2018-01-17T04:50:24.335Z,991.23
2018-01-17T04:51:24.176Z,991.26
2018-01-17T04:52:24.247Z,991.26
2018-01-17T04:53:24.109Z,991.30
2018-01-17T04:54:24.157Z,991.25
2018-01-17T04:55:24.051Z,991.31
2018-01-17T04:56:24.174Z,991.36
2018-01-17T04:57:23.984Z,991.42
2018-01-17T04:58:24.085Z,991.40
2018-01-17T04:59:23.923Z,991.39
2018-01-17T05:00:23.995Z,991.40
2018-01-17T05:01:23.859Z,991.42
2018-01-17T05:02:23.909Z,991.57
2018-01-17T05:03:23.798Z,991.52
2018-01-17T05:04:23.923Z,991.50
2018-01-17T05:05:23.734Z,991.53
2018-01-17T05:06:23.833Z,991.55
2018-01-17T05:07:23.671Z,991.70
2018-01-17T05:08:23.744Z,991.52
2018-01-17T05:09:23.610Z,991.53
2018-01-17T05:10:23.657Z,991.60
2018-01-17T05:11:23.548Z,991.60
2018-01-17T05:12:23.668Z,991.65
2018-01-17T05:13:23.487Z,991.62
2018-01-17T05:14:23.584Z,991.67
2018-01-17T05:15:23.424Z,991.68
2018-01-17T05:16:23.492Z,991.68
2018-01-17T05:17:23.359Z,991.83
2018-01-17T05:18:23.402Z,991.79
2018-01-17T05:19:23.297Z,991.74
2018-01-17T05:20:23.420Z,991.72
2018-01-17T05:21:23.237Z,991.89
2018-01-17T05:22:23.328Z,991.77
2018-01-17T05:23:23.171Z,991.83
2018-01-17T05:24:23.240Z,991.88
2018-01-17T05:25:23.108Z,991.91
2018-01-17T05:26:23.252Z,991.99
2018-01-17T05:27:23.048Z,991.95
2018-01-17T05:28:23.166Z,991.92
2018-01-17T05:29:22.987Z,991.96
2018-01-17T05:30:23.079Z,991.95
2018-01-17T05:31:22.920Z,991.94
2018-01-17T05:32:22.988Z,992.07
2018-01-17T05:33:22.857Z,992.01
2018-01-17T05:34:23.002Z,991.98
2018-01-17T05:35:22.795Z,992.12
2018-01-17T05:36:22.915Z,992.02
2018-01-17T05:37:22.742Z,992.14
2018-01-17T05:38:22.825Z,992.00
2018-01-17T05:39:22.670Z,992.07
2018-01-17T05:40:22.736Z,992.07
2018-01-17T05:41:22.607Z,992.08
2018-01-17T05:42:22.752Z,992.01
2018-01-17T05:43:22.544Z,992.16
2018-01-17T05:44:22.663Z,992.10
2018-01-17T05:45:22.480Z,992.18
2018-01-17T05:46:22.574Z,992.29
2018-01-17T05:47:22.421Z,992.13
2018-01-17T05:48:22.484Z,992.35
2018-01-17T05:49:22.356Z,992.25
2018-01-17T05:50:22.489Z,992.29
2018-01-17T05:51:22.295Z,992.27
2018-01-17T05:52:22.412Z,992.16
2018-01-17T05:53:22.230Z,992.26
2018-01-17T05:54:22.321Z,992.23
2018-01-17T05:55:22.167Z,992.20
2018-01-17T05:56:22.234Z,992.24
2018-01-17T05:57:22.107Z,992.31
2018-01-17T05:58:22.246Z,992.31
2018-01-17T05:59:22.042Z,992.33
2018-01-17T06:00:22.159Z,992.30
2018-01-17T06:01:21.979Z,992.34
2018-01-17T06:02:22.070Z,992.38
2018-01-17T06:03:21.919Z,992.39
2018-01-17T06:04:22.085Z,992.41
2018-01-17T06:05:21.855Z,992.39
2018-01-17T06:06:21.996Z,992.43
2018-01-17T06:07:21.795Z,992.57
2018-01-17T06:08:21.906Z,992.52
2018-01-17T06:09:21.734Z,992.64
2018-01-17T06:10:21.819Z,992.62
2018-01-17T06:11:21.669Z,992.73
2018-01-17T06:12:21.834Z,992.78
2018-01-17T06:13:21.603Z,992.74
2018-01-17T06:14:21.745Z,992.77
2018-01-17T06:15:21.543Z,992.84
2018-01-17T06:16:21.655Z,992.89
2018-01-17T06:17:21.481Z,992.83
2018-01-17T06:18:21.569Z,992.95
2018-01-17T06:19:21.417Z,992.90
2018-01-17T06:20:21.581Z,992.95
2018-01-17T06:21:21.362Z,992.88
2018-01-17T06:22:21.492Z,992.93
2018-01-17T06:23:21.292Z,992.99
2018-01-17T06:24:21.402Z,992.99
2018-01-17T06:25:21.231Z,992.97
2018-01-17T06:26:21.417Z,993.02
2018-01-17T06:27:21.172Z,993.05
2018-01-17T06:28:21.327Z,993.07
2018-01-17T06:29:21.107Z,993.10
2018-01-17T06:30:21.240Z,993.11
2018-01-17T06:31:21.042Z,993.05
2018-01-17T06:32:21.049Z,993.15
2018-01-17T06:33:20.983Z,993.10
2018-01-17T06:34:21.064Z,993.14
2018-01-17T06:35:20.919Z,993.19
2018-01-17T06:36:20.973Z,993.23
2018-01-17T06:37:20.855Z,993.22
2018-01-17T06:38:20.887Z,993.22
2018-01-17T06:39:20.793Z,993.22
2018-01-17T06:40:20.797Z,993.25
2018-01-17T06:41:20.730Z,993.25
2018-01-17T06:42:20.810Z,993.23
2018-01-17T06:43:20.677Z,993.31
2018-01-17T06:44:20.728Z,993.31
2018-01-17T06:45:20.603Z,993.33
2018-01-17T06:46:20.637Z,993.37
2018-01-17T06:47:20.544Z,993.41
2018-01-17T06:48:20.546Z,993.37
2018-01-17T06:49:20.481Z,993.37
2018-01-17T06:50:20.558Z,993.37
2018-01-17T06:51:20.417Z,993.44
2018-01-17T06:52:20.470Z,993.39
2018-01-17T06:53:20.355Z,993.48
2018-01-17T06:54:20.381Z,993.55
2018-01-17T06:55:20.290Z,993.57
2018-01-17T06:56:20.396Z,993.75
2018-01-17T06:57:20.230Z,993.72
2018-01-17T06:58:20.305Z,993.82
2018-01-17T06:59:20.167Z,993.84
2018-01-17T07:00:20.219Z,993.80
2018-01-17T07:01:20.104Z,993.79
2018-01-17T07:02:20.135Z,993.74
2018-01-17T07:03:20.042Z,993.85
2018-01-17T07:04:20.148Z,993.87
2018-01-17T07:05:19.980Z,993.84
2018-01-17T07:06:20.059Z,993.93
2018-01-17T07:07:19.917Z,993.89
2018-01-17T07:08:19.970Z,993.94
2018-01-17T07:09:19.863Z,993.85
2018-01-17T07:10:19.882Z,993.87
2018-01-17T07:11:19.800Z,993.90
2018-01-17T07:12:19.894Z,994.01
2018-01-17T07:13:19.730Z,994.01
2018-01-17T07:14:19.807Z,994.04
2018-01-17T07:15:19.668Z,993.99
2018-01-17T07:16:19.719Z,994.14
2018-01-17T07:17:19.603Z,994.02
2018-01-17T07:18:19.630Z,994.14
2018-01-17T07:19:19.543Z,994.06
2018-01-17T07:20:19.644Z,994.29
2018-01-17T07:21:19.483Z,994.22
2018-01-17T07:22:19.553Z,994.15
2018-01-17T07:23:19.419Z,994.09
2018-01-17T07:24:19.469Z,994.12
2018-01-17T07:25:19.355Z,994.13
2018-01-17T07:26:19.479Z,994.23
2018-01-17T07:27:19.292Z,994.34
2018-01-17T07:28:19.390Z,994.20
2018-01-17T07:29:19.229Z,994.24
2018-01-17T07:30:19.316Z,994.29
2018-01-17T07:31:19.165Z,994.27
2018-01-17T07:32:19.214Z,994.39
2018-01-17T07:33:19.106Z,994.40
2018-01-17T07:34:19.234Z,994.38
2018-01-17T07:35:19.044Z,994.39
2018-01-17T07:36:19.137Z,994.43
2018-01-17T07:37:18.980Z,994.47
2018-01-17T07:38:19.049Z,994.55
2018-01-17T07:39:18.918Z,994.58
2018-01-17T07:40:18.962Z,994.58
2018-01-17T07:41:18.856Z,994.58
2018-01-17T07:42:18.976Z,994.58
2018-01-17T07:43:18.795Z,994.59
2018-01-17T07:44:18.885Z,994.58
2018-01-17T07:45:18.735Z,994.63
2018-01-17T07:46:18.797Z,994.59
2018-01-17T07:47:18.670Z,994.71
2018-01-17T07:48:18.712Z,994.71
2018-01-17T07:49:18.605Z,994.80
2018-01-17T07:50:18.723Z,994.74
2018-01-17T07:51:18.541Z,994.91
2018-01-17T07:52:18.634Z,994.83
2018-01-17T07:53:18.480Z,994.90
2018-01-17T07:54:18.547Z,994.93
2018-01-17T07:55:18.423Z,994.90
2018-01-17T07:56:18.560Z,994.95
2018-01-17T07:57:18.358Z,994.93
2018-01-17T07:58:18.472Z,994.98
2018-01-17T07:59:18.296Z,995.00
2018-01-17T08:00:18.383Z,995.02
2018-01-17T08:01:18.230Z,994.97
2018-01-17T08:02:18.294Z,995.28
2018-01-17T08:03:18.165Z,995.19
2018-01-17T08:04:18.307Z,995.14
2018-01-17T08:05:18.105Z,995.16
2018-01-17T08:06:18.218Z,995.09
2018-01-17T08:07:18.041Z,995.15
2018-01-17T08:08:18.128Z,995.18
2018-01-17T08:09:17.978Z,995.28
2018-01-17T08:10:18.040Z,995.31
2018-01-17T08:11:17.918Z,995.30
2018-01-17T08:12:18.054Z,995.38
2018-01-17T08:13:17.853Z,995.30
2018-01-17T08:14:17.966Z,995.39
2018-01-17T08:15:17.791Z,995.60
2018-01-17T08:16:17.877Z,995.49
2018-01-17T08:17:17.731Z,995.47
2018-01-17T08:18:17.790Z,995.48
2018-01-17T08:19:17.664Z,995.59
2018-01-17T08:20:17.806Z,995.50
2018-01-17T08:21:17.601Z,995.61
2018-01-17T08:22:17.716Z,995.54
2018-01-17T08:23:17.540Z,995.67
2018-01-17T08:24:17.627Z,995.57
2018-01-17T08:25:17.477Z,995.57
2018-01-17T08:26:17.640Z,995.71
2018-01-17T08:27:17.415Z,995.58
2018-01-17T08:28:17.551Z,995.61
2018-01-17T08:29:17.350Z,995.70
2018-01-17T08:30:17.463Z,995.62
2018-01-17T08:31:17.289Z,995.66
2018-01-17T08:32:17.375Z,995.71
2018-01-17T08:33:17.226Z,995.75
2018-01-17T08:34:17.388Z,995.68
2018-01-17T08:35:17.163Z,995.65
2018-01-17T08:36:17.300Z,995.77
2018-01-17T08:37:17.101Z,995.72
2018-01-17T08:38:17.211Z,995.77
2018-01-17T08:39:17.042Z,995.78
2018-01-17T08:40:17.122Z,995.80
2018-01-17T08:41:16.976Z,995.86
2018-01-17T08:42:17.135Z,995.79
2018-01-17T08:43:16.914Z,995.75
2018-01-17T08:44:17.048Z,995.82
2018-01-17T08:45:16.851Z,995.89
2018-01-17T08:46:16.959Z,995.93
2018-01-17T08:47:16.791Z,995.97
2018-01-17T08:48:16.870Z,995.91
2018-01-17T08:49:16.740Z,995.92
2018-01-17T08:50:16.886Z,995.97
2018-01-17T08:51:16.666Z,996.01
2018-01-17T08:52:16.797Z,996.04
2018-01-17T08:53:16.602Z,995.99
2018-01-17T08:54:16.708Z,996.01
2018-01-17T08:55:16.547Z,996.06
2018-01-17T08:56:16.722Z,996.10
2018-01-17T08:57:16.477Z,996.08
2018-01-17T08:58:16.632Z,996.18
2018-01-17T08:59:16.418Z,996.18
2018-01-17T09:00:16.544Z,996.23
2018-01-17T09:01:16.356Z,996.33
2018-01-17T09:02:16.455Z,996.38
2018-01-17T09:03:16.298Z,996.36
2018-01-17T09:04:16.368Z,996.29
2018-01-17T09:05:16.231Z,996.25
2018-01-17T09:06:16.281Z,996.35
2018-01-17T09:07:16.176Z,996.51
2018-01-17T09:08:16.192Z,996.44
2018-01-17T09:09:16.113Z,996.51
2018-01-17T09:10:16.086Z,996.56
2018-01-17T09:11:16.113Z,996.62
2018-01-17T09:12:16.020Z,996.58
2018-01-17T09:13:16.023Z,996.60
2018-01-17T09:14:15.958Z,996.62
2018-01-17T09:15:16.037Z,996.65
2018-01-17T09:16:15.892Z,996.58
2018-01-17T09:17:15.948Z,996.70
2018-01-17T09:18:15.837Z,996.66
2018-01-17T09:19:15.859Z,996.59
2018-01-17T09:20:15.771Z,996.62
2018-01-17T09:21:15.769Z,996.60
2018-01-17T09:22:15.709Z,996.70
2018-01-17T09:23:15.784Z,996.70
2018-01-17T09:24:15.649Z,996.68
2018-01-17T09:25:15.697Z,996.75
2018-01-17T09:26:15.587Z,996.89
2018-01-17T09:27:15.606Z,996.89
2018-01-17T09:28:15.527Z,997.05
2018-01-17T09:29:15.519Z,996.92
2018-01-17T09:30:15.468Z,997.07
2018-01-17T09:31:15.534Z,997.03
2018-01-17T09:32:15.404Z,997.16
2018-01-17T09:33:15.444Z,997.11
2018-01-17T09:34:15.344Z,997.18
2018-01-17T09:35:15.356Z,997.30
2018-01-17T09:36:15.292Z,997.37
2018-01-17T09:37:15.371Z,997.22
2018-01-17T09:38:15.232Z,997.35
2018-01-17T09:39:15.281Z,997.41
2018-01-17T09:40:15.182Z,997.29
2018-01-17T09:41:15.191Z,997.50
2018-01-17T09:42:15.128Z,997.27
2018-01-17T09:43:15.206Z,997.30
2018-01-17T09:44:15.070Z,997.53
2018-01-17T09:45:15.121Z,997.58
2018-01-17T09:46:15.022Z,997.71
2018-01-17T09:47:15.036Z,997.49
2018-01-17T09:48:14.973Z,997.27
2018-01-17T09:49:15.044Z,997.39
2018-01-17T09:50:14.926Z,997.34
2018-01-17T09:51:14.954Z,997.58
2018-01-17T09:52:14.872Z,997.81
2018-01-17T09:53:14.865Z,997.48
2018-01-17T09:54:14.823Z,997.34
2018-01-17T09:55:14.880Z,997.33
2018-01-17T09:56:14.776Z,997.35
2018-01-17T09:57:14.790Z,997.40
2018-01-17T09:58:14.727Z,997.31
2018-01-17T09:59:14.805Z,997.38
2018-01-17T10:00:14.679Z,997.35
2018-01-17T10:01:14.720Z,997.42
2018-01-17T10:02:14.629Z,997.40
2018-01-17T10:03:14.629Z,997.42
2018-01-17T10:04:14.576Z,997.55
2018-01-17T10:05:14.642Z,997.45
2018-01-17T10:06:14.526Z,997.59
2018-01-17T10:07:14.555Z,997.45
2018-01-17T10:08:14.473Z,997.54
2018-01-17T10:09:14.444Z,997.43
2018-01-17T10:10:14.420Z,997.35
2018-01-17T10:11:14.479Z,997.36
2018-01-17T10:12:14.371Z,997.26
2018-01-17T10:13:14.396Z,997.31
2018-01-17T10:14:14.314Z,997.33
2018-01-17T10:15:14.303Z,997.43
2018-01-17T10:16:14.261Z,997.49
2018-01-17T10:17:14.316Z,997.48
2018-01-17T10:18:14.203Z,997.59
2018-01-17T10:19:14.227Z,997.55
2018-01-17T10:20:14.148Z,997.48
2018-01-17T10:21:14.139Z,997.54
2018-01-17T10:22:14.102Z,997.67
2018-01-17T10:23:14.152Z,997.75
2018-01-17T10:24:14.037Z,997.67
2018-01-17T10:25:14.063Z,997.54
2018-01-17T10:26:13.982Z,997.61
2018-01-17T10:27:13.974Z,997.58
2018-01-17T10:28:13.923Z,997.65
2018-01-17T10:29:13.989Z,997.64
2018-01-17T10:30:13.868Z,997.69
2018-01-17T10:31:13.900Z,997.74
2018-01-17T10:32:13.813Z,997.73
2018-01-17T10:33:13.814Z,997.80
2018-01-17T10:34:13.754Z,997.78
2018-01-17T10:35:13.826Z,997.69
2018-01-17T10:36:13.692Z,997.74
2018-01-17T10:37:13.736Z,997.71
2018-01-17T10:38:13.638Z,997.75
2018-01-17T10:39:13.648Z,997.76
2018-01-17T10:40:13.581Z,997.81
2018-01-17T10:41:13.662Z,997.78
2018-01-17T10:42:13.525Z,997.76
2018-01-17T10:43:13.574Z,997.73
2018-01-17T10:44:13.465Z,997.70
2018-01-17T10:45:13.483Z,997.63
2018-01-17T10:46:13.409Z,997.69
2018-01-17T10:47:13.402Z,997.86
2018-01-17T10:48:13.346Z,997.85
2018-01-17T10:49:13.410Z,997.94
2018-01-17T10:50:13.287Z,997.83
2018-01-17T10:51:13.324Z,997.83
2018-01-17T10:52:13.228Z,997.84
2018-01-17T10:53:13.236Z,997.66
2018-01-17T10:54:13.172Z,997.77
2018-01-17T10:55:13.247Z,997.73
2018-01-17T10:56:13.109Z,997.75
2018-01-17T10:57:13.157Z,997.81
2018-01-17T10:58:13.054Z,997.87
2018-01-17T10:59:13.071Z,997.81
2018-01-17T11:00:12.991Z,997.75
2018-01-17T11:01:12.982Z,997.84
2018-01-17T11:02:12.932Z,997.79
2018-01-17T11:03:12.998Z,997.84
2018-01-17T11:04:12.872Z,997.85
2018-01-17T11:05:12.907Z,997.85
2018-01-17T11:06:12.812Z,997.80
2018-01-17T11:07:12.818Z,997.95
2018-01-17T11:08:12.751Z,997.84
2018-01-17T11:09:12.832Z,998.02
2018-01-17T11:10:12.692Z,998.05
2018-01-17T11:11:12.743Z,998.07
2018-01-17T11:12:12.633Z,998.05
2018-01-17T11:13:12.656Z,997.89
2018-01-17T11:14:12.577Z,997.99
2018-01-17T11:15:12.567Z,998.05
2018-01-17T11:16:12.512Z,997.96
2018-01-17T11:17:12.580Z,998.00
2018-01-17T11:18:12.452Z,998.13
2018-01-17T11:19:12.490Z,998.17
2018-01-17T11:20:12.399Z,998.04
2018-01-17T11:21:12.408Z,998.10
2018-01-17T11:22:12.333Z,997.97
2018-01-17T11:23:12.313Z,998.03
2018-01-17T11:24:12.270Z,997.96
2018-01-17T11:25:12.329Z,998.01
2018-01-17T11:26:12.212Z,998.02
2018-01-17T11:27:12.238Z,998.16
2018-01-17T11:28:12.152Z,998.13
2018-01-17T11:29:12.151Z,998.13
2018-01-17T11:30:12.096Z,998.08
2018-01-17T11:31:12.165Z,998.15
2018-01-17T11:32:12.033Z,998.17
2018-01-17T11:33:12.076Z,998.05
2018-01-17T11:34:11.972Z,998.15
2018-01-17T11:35:11.990Z,998.06
2018-01-17T11:36:11.908Z,998.14
2018-01-17T11:37:11.901Z,998.08
2018-01-17T11:38:11.851Z,998.13
2018-01-17T11:39:11.911Z,998.22
2018-01-17T11:40:11.790Z,998.15
2018-01-17T11:41:11.823Z,998.19
2018-01-17T11:42:11.731Z,998.29
2018-01-17T11:43:11.735Z,998.13
2018-01-17T11:44:11.668Z,998.17
2018-01-17T11:45:11.752Z,998.27
2018-01-17T11:46:11.608Z,998.18
2018-01-17T11:47:11.663Z,998.28
2018-01-17T11:48:11.554Z,998.21
2018-01-17T11:49:11.572Z,998.13
2018-01-17T11:50:11.488Z,998.23
2018-01-17T11:51:11.483Z,998.30
2018-01-17T11:52:11.425Z,998.28
2018-01-17T11:53:11.498Z,998.24
2018-01-17T11:54:11.365Z,998.23
2018-01-17T11:55:11.408Z,998.32
2018-01-17T11:56:11.304Z,998.28
2018-01-17T11:57:11.320Z,998.18
2018-01-17T11:58:11.243Z,998.26
2018-01-17T11:59:11.232Z,998.23
2018-01-17T12:00:11.183Z,998.25
2018-01-17T12:01:11.236Z,998.29
2018-01-17T12:02:11.125Z,998.22
2018-01-17T12:03:11.157Z,998.31
2018-01-17T12:04:11.067Z,998.44
2018-01-17T12:05:11.068Z,998.41
2018-01-17T12:06:11.003Z,998.30
2018-01-17T12:07:11.082Z,998.42
2018-01-17T12:08:10.940Z,998.67
2018-01-17T12:09:10.992Z,998.34
2018-01-17T12:10:10.882Z,998.37
2018-01-17T12:11:10.904Z,998.39
2018-01-17T12:12:10.827Z,998.41
2018-01-17T12:13:10.817Z,998.38
2018-01-17T12:14:10.762Z,998.21
2018-01-17T12:15:10.832Z,998.29
2018-01-17T12:16:10.702Z,998.32
2018-01-17T12:17:10.741Z,998.98
2018-01-17T12:18:10.645Z,999.45
2018-01-17T12:19:10.620Z,999.48
2018-01-17T12:20:10.584Z,999.26
2018-01-17T12:21:10.670Z,998.92
2018-01-17T12:22:10.526Z,998.77
2018-01-17T12:23:10.579Z,999.50
2018-01-17T12:24:10.470Z,999.59
2018-01-17T12:25:10.444Z,999.18
2018-01-17T12:26:10.420Z,999.48
2018-01-17T12:27:10.504Z,998.78
2018-01-17T12:28:10.362Z,998.47